createdAt,value
2023-08-08T00:00:28.380Z,0.90
2023-08-08T00:04:28.496Z,0.80
2023-08-08T00:08:28.425Z,0.80
2023-08-08T00:12:28.490Z,0.80
2023-08-08T00:16:28.419Z,1.10
2023-08-08T00:20:28.660Z,1.00
2023-08-08T00:24:28.449Z,1.10
2023-08-08T00:28:28.552Z,1.00
2023-08-08T00:32:28.541Z,0.90
2023-08-08T00:36:28.644Z,0.80
2023-08-08T00:40:28.482Z,0.90
2023-08-08T00:44:28.659Z,0.80
2023-08-08T00:48:28.704Z,1.10
2023-08-08T00:52:28.981Z,0.80
2023-08-08T00:56:28.580Z,0.70
2023-08-08T01:00:28.669Z,1.00
2023-08-08T01:04:28.657Z,1.10
2023-08-08T01:08:35.676Z,0.60
2023-08-08T01:12:28.760Z,0.90
2023-08-08T01:16:29.934Z,0.90
2023-08-08T01:20:29.427Z,1.00
2023-08-08T01:24:30.350Z,0.90
2023-08-08T01:28:28.692Z,0.80
2023-08-08T01:33:36.526Z,0.80
2023-08-08T01:36:34.034Z,1.00
2023-08-08T01:40:29.474Z,1.10
2023-08-08T01:44:29.618Z,0.90
2023-08-08T01:48:29.866Z,1.00
2023-08-08T01:52:28.825Z,0.90
2023-08-08T01:56:28.858Z,0.90
2023-08-08T02:00:28.873Z,1.40
2023-08-08T02:04:29.434Z,1.00
2023-08-08T02:12:30.129Z,1.10
2023-08-08T02:16:28.840Z,1.10
2023-08-08T02:20:29.641Z,0.90
2023-08-08T02:24:28.814Z,0.80
2023-08-08T02:28:29.028Z,0.80
2023-08-08T02:31:45.499Z,0.80
2023-08-08T02:32:29.047Z,0.80
2023-08-08T02:36:29.080Z,0.90
2023-08-08T02:40:28.841Z,1.00
2023-08-08T02:44:29.151Z,1.00
2023-08-08T02:48:30.202Z,1.00
2023-08-08T02:52:29.022Z,0.90
2023-08-08T02:56:28.893Z,0.90
2023-08-08T03:00:29.089Z,0.80
2023-08-08T03:04:38.797Z,0.90
2023-08-08T03:08:39.004Z,0.80
2023-08-08T03:12:50.081Z,0.90
2023-08-08T03:16:29.035Z,0.70
2023-08-08T03:20:29.204Z,0.70
2023-08-08T03:24:29.285Z,0.90
2023-08-08T03:28:29.137Z,1.00
2023-08-08T03:32:29.203Z,0.90
2023-08-08T03:36:29.001Z,0.90
2023-08-08T03:40:30.160Z,0.80
2023-08-08T03:44:29.007Z,0.80
2023-08-08T03:48:29.240Z,1.00
2023-08-08T03:52:29.101Z,0.80
2023-08-08T03:56:29.349Z,1.10
2023-08-08T04:00:29.100Z,1.00
2023-08-08T04:04:29.268Z,0.80
2023-08-08T04:08:29.696Z,1.00
2023-08-08T04:12:29.306Z,1.30
2023-08-08T04:16:29.143Z,0.90
2023-08-08T04:20:29.218Z,0.80
2023-08-08T04:24:29.241Z,1.10
2023-08-08T04:28:29.272Z,0.90
2023-08-08T04:32:29.190Z,0.90
2023-08-08T04:36:29.942Z,1.10
2023-08-08T04:40:29.350Z,0.90
2023-08-08T04:44:29.373Z,1.00
2023-08-08T04:48:29.248Z,1.00
2023-08-08T04:53:10.004Z,1.20
2023-08-08T04:56:30.598Z,1.10
2023-08-08T05:00:29.470Z,0.90
2023-08-08T05:04:31.136Z,1.30
2023-08-08T05:08:29.503Z,1.20
2023-08-08T05:12:29.530Z,1.00
2023-08-08T05:16:29.481Z,1.10
2023-08-08T05:20:29.425Z,1.10
2023-08-08T05:24:29.568Z,1.00
2023-08-08T05:28:29.331Z,1.30
2023-08-08T05:32:29.556Z,1.00
2023-08-08T05:40:29.623Z,1.10
2023-08-08T05:48:29.585Z,0.70
2023-08-08T05:52:29.437Z,1.10
2023-08-08T05:56:35.338Z,0.90
2023-08-08T06:00:30.194Z,1.00
2023-08-08T06:04:30.078Z,1.00
2023-08-08T06:08:29.710Z,1.10
2023-08-08T06:12:29.654Z,1.10
2023-08-08T06:16:29.715Z,1.10
2023-08-08T06:20:29.897Z,1.10
2023-08-08T06:24:29.489Z,1.20
2023-08-08T06:28:30.694Z,1.00
2023-08-08T06:32:29.512Z,1.50
2023-08-08T06:36:29.555Z,1.00
2023-08-08T06:40:29.523Z,1.10
2023-08-08T06:44:32.712Z,0.80
2023-08-08T06:48:29.546Z,1.20
2023-08-08T06:52:29.654Z,1.10
2023-08-08T06:56:29.857Z,1.00
2023-08-08T07:00:30.160Z,1.00
2023-08-08T07:04:29.725Z,0.80
2023-08-08T07:08:29.793Z,0.90
2023-08-08T07:12:29.641Z,1.00
2023-08-08T07:16:29.954Z,1.40
2023-08-08T07:20:29.655Z,1.00
2023-08-08T07:24:29.731Z,1.10
2023-08-08T07:28:29.784Z,1.00
2023-08-08T07:32:30.927Z,1.00
2023-08-08T07:36:30.306Z,1.00
2023-08-08T07:44:32.042Z,1.30
2023-08-08T07:48:30.059Z,1.20
2023-08-08T07:52:29.967Z,1.00
2023-08-08T08:00:30.610Z,1.10
2023-08-08T08:06:51.948Z,0.90
2023-08-08T08:10:51.807Z,0.90
2023-08-08T08:14:51.914Z,0.90
2023-08-08T08:18:51.809Z,1.00
2023-08-08T08:22:51.929Z,1.20
2023-08-08T08:26:52.150Z,0.90
2023-08-08T08:30:52.010Z,1.20
2023-08-08T08:34:51.991Z,1.10
2023-08-08T08:38:52.216Z,1.20
2023-08-08T08:42:52.183Z,1.20
2023-08-08T08:46:53.175Z,1.20
2023-08-08T08:50:53.311Z,1.30
2023-08-08T08:54:53.127Z,1.10
2023-08-08T08:58:52.029Z,1.00
2023-08-08T09:02:52.454Z,1.30
2023-08-08T09:06:52.555Z,1.30
2023-08-08T09:10:52.206Z,1.40
2023-08-08T09:14:55.326Z,1.50
2023-08-08T09:18:52.305Z,1.40
2023-08-08T09:26:52.235Z,1.10
2023-08-08T09:30:53.605Z,1.40
2023-08-08T09:34:52.083Z,1.20
2023-08-08T09:38:53.031Z,1.00
2023-08-08T09:42:52.944Z,1.10
2023-08-08T09:46:52.311Z,1.10
2023-08-08T09:50:52.300Z,1.10
2023-08-08T09:54:52.608Z,1.20
2023-08-08T09:58:52.402Z,1.10
2023-08-08T10:02:52.341Z,1.00
2023-08-08T10:06:52.180Z,1.00
2023-08-08T10:10:53.014Z,1.00
2023-08-08T10:14:52.783Z,1.10
2023-08-08T10:18:56.405Z,1.50
2023-08-08T10:22:55.468Z,1.20
2023-08-08T10:26:53.423Z,1.00
2023-08-08T10:30:53.710Z,0.90
2023-08-08T10:34:56.752Z,1.30
2023-08-08T10:38:52.671Z,1.00
2023-08-08T10:46:53.791Z,0.80
2023-08-08T10:50:54.612Z,0.90
2023-08-08T10:54:53.376Z,0.80
2023-08-08T10:58:52.270Z,0.90
2023-08-08T11:02:54.708Z,1.00
2023-08-08T11:06:53.141Z,1.10
2023-08-08T11:14:52.456Z,0.80
2023-08-08T11:18:55.394Z,0.90
2023-08-08T11:22:53.430Z,0.60
2023-08-08T11:26:58.882Z,0.90
2023-08-08T11:30:52.647Z,0.80
2023-08-08T11:34:52.446Z,0.50
2023-08-08T11:38:53.752Z,0.60
2023-08-08T11:42:53.852Z,0.50
2023-08-08T11:46:52.835Z,0.40
2023-08-08T11:50:52.877Z,0.50
2023-08-08T11:54:52.559Z,0.50
2023-08-08T11:58:52.536Z,0.40
2023-08-08T12:02:53.067Z,0.30
2023-08-08T12:10:54.687Z,0.40
2023-08-08T12:18:53.881Z,0.40
2023-08-08T12:22:52.694Z,0.50
2023-08-08T12:26:52.896Z,0.30
2023-08-08T12:30:52.717Z,0.50
2023-08-08T12:34:52.814Z,0.30
2023-08-08T12:38:52.666Z,0.70
2023-08-08T12:42:52.730Z,0.50
2023-08-08T12:46:52.713Z,0.40
2023-08-08T12:50:53.016Z,0.50
2023-08-08T12:58:52.715Z,0.60
2023-08-08T13:02:52.720Z,0.60
2023-08-08T13:06:52.812Z,0.50
2023-08-08T13:10:53.002Z,0.60
2023-08-08T13:14:52.833Z,0.50
2023-08-08T13:18:52.648Z,0.80
2023-08-08T13:26:52.894Z,0.70
2023-08-08T13:30:53.599Z,0.60
2023-08-08T13:34:53.047Z,0.50
2023-08-08T13:38:55.091Z,0.50
2023-08-08T13:42:53.550Z,0.50
2023-08-08T13:46:52.795Z,0.40
2023-08-08T13:50:53.074Z,0.40
2023-08-08T13:54:52.755Z,0.40
2023-08-08T13:58:52.906Z,0.40
2023-08-08T14:02:52.892Z,0.40
2023-08-08T14:06:52.859Z,0.50
2023-08-08T14:10:52.823Z,0.30
2023-08-08T14:14:52.926Z,0.30
2023-08-08T14:18:52.994Z,0.30
2023-08-08T14:22:53.019Z,0.30
2023-08-08T14:26:52.831Z,0.30
2023-08-08T14:30:52.913Z,0.30
2023-08-08T14:35:14.685Z,0.40
2023-08-08T14:38:53.111Z,0.30
2023-08-08T14:42:56.215Z,0.30
2023-08-08T14:46:53.000Z,0.50
2023-08-08T14:50:53.171Z,0.80
2023-08-08T14:54:53.236Z,0.70
2023-08-08T14:58:52.942Z,0.50
2023-08-08T15:02:53.158Z,0.50
2023-08-08T15:06:53.035Z,0.50
2023-08-08T15:10:53.153Z,0.60
2023-08-08T15:14:52.996Z,0.80
2023-08-08T15:19:02.108Z,0.70
2023-08-08T15:22:53.028Z,0.60
2023-08-08T15:26:53.108Z,0.90
2023-08-08T15:30:53.220Z,0.80
2023-08-08T15:34:53.158Z,0.70
2023-08-08T15:38:53.118Z,1.20
2023-08-08T15:42:53.164Z,1.10
2023-08-08T15:46:53.131Z,0.80
2023-08-08T15:50:53.603Z,0.90
2023-08-08T15:58:53.183Z,0.90
2023-08-08T16:02:53.268Z,1.10
2023-08-08T16:06:53.301Z,1.10
2023-08-08T16:14:53.334Z,1.10
2023-08-08T16:18:53.189Z,1.00
2023-08-08T16:22:54.012Z,1.00
2023-08-08T16:26:53.361Z,1.20
2023-08-08T16:30:53.320Z,1.10
2023-08-08T16:34:53.392Z,1.40
2023-08-08T16:38:55.400Z,1.20
2023-08-08T16:46:53.462Z,1.10
2023-08-08T16:50:54.614Z,1.20
2023-08-08T16:54:54.947Z,1.10
2023-08-08T16:58:53.563Z,1.10
2023-08-08T17:02:53.518Z,1.00
2023-08-08T17:06:53.705Z,1.00
2023-08-08T17:14:55.607Z,0.30
2023-08-08T17:18:53.350Z,0.30
2023-08-08T17:22:53.506Z,0.30
2023-08-08T17:26:53.360Z,0.40
2023-08-08T17:30:54.079Z,0.30
2023-08-08T17:34:53.463Z,0.30
2023-08-08T17:38:53.480Z,0.20
2023-08-08T17:42:53.404Z,0.30
2023-08-08T17:46:53.651Z,0.30
2023-08-08T17:50:54.031Z,0.30
2023-08-08T17:54:53.595Z,0.30
2023-08-08T17:58:53.486Z,0.30
2023-08-08T18:06:01.823Z,0.20
2023-08-08T18:06:53.536Z,0.20
2023-08-08T18:10:53.519Z,0.30
2023-08-08T18:14:53.571Z,0.30
2023-08-08T18:18:53.541Z,0.30
2023-08-08T18:22:53.596Z,0.40
2023-08-08T18:26:53.642Z,0.30
2023-08-08T18:30:54.488Z,0.40
2023-08-08T18:34:54.583Z,0.30
2023-08-08T18:38:54.639Z,0.20
2023-08-08T18:42:54.481Z,0.30
2023-08-08T18:46:54.038Z,0.40
2023-08-08T18:50:53.772Z,0.30
2023-08-08T18:54:53.733Z,0.30
2023-08-08T18:58:53.699Z,0.50
2023-08-08T19:02:53.884Z,0.40
2023-08-08T19:06:53.666Z,0.30
2023-08-08T19:10:53.728Z,0.40
2023-08-08T19:14:53.718Z,0.40
2023-08-08T19:18:53.818Z,0.60
2023-08-08T19:22:53.860Z,0.40
2023-08-08T19:26:54.426Z,0.50
2023-08-08T19:30:54.222Z,0.70
2023-08-08T19:34:53.891Z,0.70
2023-08-08T19:38:53.737Z,0.70
2023-08-08T19:42:54.545Z,0.50
2023-08-08T19:46:55.066Z,0.50
2023-08-08T19:54:54.074Z,0.40
2023-08-08T20:02:54.395Z,0.50
2023-08-08T20:06:53.997Z,0.40
2023-08-08T20:10:53.973Z,0.40
2023-08-08T20:14:53.915Z,0.30
2023-08-08T20:18:53.961Z,0.40
2023-08-08T20:22:53.868Z,0.80
2023-08-08T20:26:54.645Z,0.40
2023-08-08T20:30:54.228Z,0.40
2023-08-08T20:34:53.963Z,0.50
2023-08-08T20:38:54.243Z,0.60
2023-08-08T20:42:55.719Z,0.40
2023-08-08T20:46:54.223Z,0.40
2023-08-08T20:50:54.050Z,0.50
2023-08-08T20:54:54.044Z,0.30
2023-08-08T20:58:54.142Z,0.30
2023-08-08T21:02:54.125Z,0.40
2023-08-08T21:06:54.171Z,0.40
2023-08-08T21:10:53.992Z,0.60
2023-08-08T21:14:54.284Z,0.60
2023-08-08T21:18:54.013Z,0.40
2023-08-08T21:22:54.198Z,0.60
2023-08-08T21:26:54.090Z,0.70
2023-08-08T21:30:54.247Z,0.70
2023-08-08T21:34:54.283Z,0.80
2023-08-08T21:38:54.330Z,0.60
2023-08-08T21:42:54.334Z,0.60
2023-08-08T21:46:54.264Z,0.60
2023-08-08T21:50:54.129Z,0.90
2023-08-08T21:54:54.446Z,0.80
2023-08-08T21:58:54.145Z,0.80
2023-08-08T22:02:54.346Z,0.60
2023-08-08T22:06:54.264Z,0.60
2023-08-08T22:10:54.381Z,0.80
2023-08-08T22:14:54.934Z,0.80
2023-08-08T22:18:54.477Z,0.80
2023-08-08T22:22:55.898Z,0.80
2023-08-08T22:26:54.341Z,0.90
2023-08-08T22:30:54.237Z,1.00
2023-08-08T22:34:55.053Z,1.00
2023-08-08T22:42:54.462Z,1.00
2023-08-08T22:46:54.286Z,1.10
2023-08-08T22:50:54.468Z,1.10
2023-08-08T22:54:55.868Z,1.70
2023-08-08T22:58:54.417Z,1.80
2023-08-08T23:02:54.446Z,1.80
2023-08-08T23:10:55.504Z,2.10
2023-08-08T23:14:54.436Z,2.20
2023-08-08T23:18:54.443Z,2.20
2023-08-08T23:22:54.379Z,2.40
2023-08-08T23:26:55.541Z,2.30
2023-08-08T23:38:54.642Z,2.90
2023-08-08T23:42:54.720Z,2.60
2023-08-08T23:46:54.698Z,2.50
2023-08-08T23:50:54.553Z,2.50
2023-08-08T23:58:54.650Z,2.70
